sensor_id;sensor_type;location;lat;lon;timestamp;P1;durP1;ratioP1;P2;durP2;ratioP2
17496;SDS011;62150;43.582;1.456;2023-02-07T06:46:20;11.10;;;5.57;;
17496;SDS011;62150;43.582;1.456;2023-02-07T06:48:55;11.87;;;5.63;;
17496;SDS011;62150;43.582;1.456;2023-02-07T06:51:23;11.23;;;5.40;;
17496;SDS011;62150;43.582;1.456;2023-02-07T06:53:51;11.90;;;5.30;;
17496;SDS011;62150;43.582;1.456;2023-02-07T06:56:18;12.20;;;5.43;;
17496;SDS011;62150;43.582;1.456;2023-02-07T06:58:46;12.73;;;5.50;;
17496;SDS011;62150;43.582;1.456;2023-02-07T07:01:13;11.10;;;5.10;;
17496;SDS011;62150;43.582;1.456;2023-02-07T07:03:45;11.70;;;4.90;;
17496;SDS011;62150;43.582;1.456;2023-02-07T07:06:13;12.70;;;5.67;;
17496;SDS011;62150;43.582;1.456;2023-02-07T07:08:40;10.17;;;4.53;;
17496;SDS011;62150;43.582;1.456;2023-02-07T07:11:08;12.40;;;5.43;;
17496;SDS011;62150;43.582;1.456;2023-02-07T07:13:36;11.43;;;5.00;;
17496;SDS011;62150;43.582;1.456;2023-02-07T07:16:03;8.77;;;4.23;;
17496;SDS011;62150;43.582;1.456;2023-02-07T07:18:31;9.33;;;4.20;;
17496;SDS011;62150;43.582;1.456;2023-02-07T07:21:03;9.63;;;4.73;;
17496;SDS011;62150;43.582;1.456;2023-02-07T07:23:31;10.13;;;4.60;;
17496;SDS011;62150;43.582;1.456;2023-02-07T07:25:58;10.00;;;4.27;;
17496;SDS011;62150;43.582;1.456;2023-02-07T07:28:26;9.50;;;4.20;;
17496;SDS011;62150;43.582;1.456;2023-02-07T07:30:53;9.20;;;4.10;;
17496;SDS011;62150;43.582;1.456;2023-02-07T07:33:26;9.33;;;4.20;;
17496;SDS011;62150;43.582;1.456;2023-02-07T07:35:55;9.87;;;4.33;;
17496;SDS011;62150;43.582;1.456;2023-02-07T07:38:24;7.93;;;3.80;;
17496;SDS011;62150;43.582;1.456;2023-02-07T07:40:52;9.30;;;4.00;;
17496;SDS011;62150;43.582;1.456;2023-02-07T07:43:20;10.20;;;4.57;;
17496;SDS011;62150;43.582;1.456;2023-02-07T07:45:50;10.20;;;4.23;;
17496;SDS011;62150;43.582;1.456;2023-02-07T07:48:18;9.77;;;4.10;;
17496;SDS011;62150;43.582;1.456;2023-02-07T07:50:46;9.10;;;4.37;;
17496;SDS011;62150;43.582;1.456;2023-02-07T07:53:14;10.10;;;4.40;;
17496;SDS011;62150;43.582;1.456;2023-02-07T07:55:44;9.37;;;4.23;;
17496;SDS011;62150;43.582;1.456;2023-02-07T07:58:15;9.80;;;4.07;;
17496;SDS011;62150;43.582;1.456;2023-02-07T08:00:45;8.80;;;3.90;;
17496;SDS011;62150;43.582;1.456;2023-02-07T08:03:12;9.33;;;4.30;;
17496;SDS011;62150;43.582;1.456;2023-02-07T08:05:43;9.17;;;3.93;;
17496;SDS011;62150;43.582;1.456;2023-02-07T08:08:11;8.67;;;3.90;;
17496;SDS011;62150;43.582;1.456;2023-02-07T08:10:39;9.00;;;4.23;;
17496;SDS011;62150;43.582;1.456;2023-02-07T08:13:16;9.47;;;4.23;;
17496;SDS011;62150;43.582;1.456;2023-02-07T08:15:44;8.33;;;3.73;;
17496;SDS011;62150;43.582;1.456;2023-02-07T08:18:11;9.97;;;4.53;;
17496;SDS011;62150;43.582;1.456;2023-02-07T08:20:39;10.00;;;4.50;;
17496;SDS011;62150;43.582;1.456;2023-02-07T08:23:06;9.47;;;4.67;;
17496;SDS011;62150;43.582;1.456;2023-02-07T08:25:34;8.97;;;4.20;;
17496;SDS011;62150;43.582;1.456;2023-02-07T08:28:02;10.03;;;4.70;;
17496;SDS011;62150;43.582;1.456;2023-02-07T08:30:31;9.43;;;4.73;;
17496;SDS011;62150;43.582;1.456;2023-02-07T08:32:59;10.93;;;4.93;;
17496;SDS011;62150;43.582;1.456;2023-02-07T08:35:27;10.67;;;4.87;;
17496;SDS011;62150;43.582;1.456;2023-02-07T08:37:54;10.70;;;4.93;;
17496;SDS011;62150;43.582;1.456;2023-02-07T08:40:22;9.00;;;4.30;;
17496;SDS011;62150;43.582;1.456;2023-02-07T08:42:50;11.10;;;5.00;;
17496;SDS011;62150;43.582;1.456;2023-02-07T08:45:18;10.93;;;4.77;;
17496;SDS011;62150;43.582;1.456;2023-02-07T08:47:47;11.73;;;4.93;;
17496;SDS011;62150;43.582;1.456;2023-02-07T08:50:14;9.83;;;4.67;;
17496;SDS011;62150;43.582;1.456;2023-02-07T08:52:43;10.63;;;4.83;;
17496;SDS011;62150;43.582;1.456;2023-02-07T08:55:11;11.00;;;5.20;;
17496;SDS011;62150;43.582;1.456;2023-02-07T08:57:38;11.67;;;4.73;;
17496;SDS011;62150;43.582;1.456;2023-02-07T09:00:06;9.50;;;4.27;;
17496;SDS011;62150;43.582;1.456;2023-02-07T09:02:35;10.77;;;5.07;;
17496;SDS011;62150;43.582;1.456;2023-02-07T09:05:04;10.53;;;4.67;;
17496;SDS011;62150;43.582;1.456;2023-02-07T09:07:32;9.97;;;4.77;;
17496;SDS011;62150;43.582;1.456;2023-02-07T09:10:00;11.57;;;4.90;;
17496;SDS011;62150;43.582;1.456;2023-02-07T09:12:29;10.93;;;4.90;;
17496;SDS011;62150;43.582;1.456;2023-02-07T09:14:57;9.90;;;4.93;;
17496;SDS011;62150;43.582;1.456;2023-02-07T09:17:25;12.93;;;5.73;;
17496;SDS011;62150;43.582;1.456;2023-02-07T09:19:53;10.80;;;5.20;;
17496;SDS011;62150;43.582;1.456;2023-02-07T09:22:22;10.20;;;4.80;;
17496;SDS011;62150;43.582;1.456;2023-02-07T09:24:49;10.67;;;4.90;;
17496;SDS011;62150;43.582;1.456;2023-02-07T09:27:17;12.37;;;5.50;;
17496;SDS011;62150;43.582;1.456;2023-02-07T09:29:44;11.03;;;5.30;;
17496;SDS011;62150;43.582;1.456;2023-02-07T09:32:12;11.60;;;4.90;;
17496;SDS011;62150;43.582;1.456;2023-02-07T09:34:39;10.47;;;4.83;;
17496;SDS011;62150;43.582;1.456;2023-02-07T09:37:07;9.47;;;4.37;;
17496;SDS011;62150;43.582;1.456;2023-02-07T09:39:36;10.63;;;4.63;;
17496;SDS011;62150;43.582;1.456;2023-02-07T09:42:07;10.43;;;4.80;;
17496;SDS011;62150;43.582;1.456;2023-02-07T09:44:50;9.83;;;4.07;;
17496;SDS011;62150;43.582;1.456;2023-02-07T09:47:22;7.97;;;3.97;;
17496;SDS011;62150;43.582;1.456;2023-02-07T09:49:51;9.47;;;3.80;;
17496;SDS011;62150;43.582;1.456;2023-02-07T09:52:23;8.23;;;3.70;;
17496;SDS011;62150;43.582;1.456;2023-02-07T09:54:56;9.17;;;4.00;;
17496;SDS011;62150;43.582;1.456;2023-02-07T09:57:26;7.67;;;3.60;;
17496;SDS011;62150;43.582;1.456;2023-02-07T10:00:03;10.77;;;4.10;;
17496;SDS011;62150;43.582;1.456;2023-02-07T10:02:36;7.10;;;3.30;;
17496;SDS011;62150;43.582;1.456;2023-02-07T10:05:12;6.63;;;3.20;;
17496;SDS011;62150;43.582;1.456;2023-02-07T10:07:42;6.60;;;3.00;;
17496;SDS011;62150;43.582;1.456;2023-02-07T10:10:16;7.93;;;3.27;;
17496;SDS011;62150;43.582;1.456;2023-02-07T10:12:50;7.10;;;3.10;;
17496;SDS011;62150;43.582;1.456;2023-02-07T10:15:34;7.73;;;3.20;;
17496;SDS011;62150;43.582;1.456;2023-02-07T10:18:17;7.83;;;3.10;;
17496;SDS011;62150;43.582;1.456;2023-02-07T10:21:13;6.37;;;2.60;;
17496;SDS011;62150;43.582;1.456;2023-02-07T10:23:54;5.57;;;2.53;;
17496;SDS011;62150;43.582;1.456;2023-02-07T10:26:42;4.40;;;2.20;;
17496;SDS011;62150;43.582;1.456;2023-02-07T10:29:22;3.73;;;1.80;;
17496;SDS011;62150;43.582;1.456;2023-02-07T10:32:11;2.83;;;1.60;;
17496;SDS011;62150;43.582;1.456;2023-02-07T10:34:45;3.60;;;1.67;;
17496;SDS011;62150;43.582;1.456;2023-02-07T10:37:15;2.57;;;1.50;;
17496;SDS011;62150;43.582;1.456;2023-02-07T10:39:46;3.50;;;1.60;;
17496;SDS011;62150;43.582;1.456;2023-02-07T10:42:24;2.07;;;1.40;;
17496;SDS011;62150;43.582;1.456;2023-02-07T10:44:54;2.97;;;1.60;;
17496;SDS011;62150;43.582;1.456;2023-02-07T10:47:22;1.87;;;1.40;;
17496;SDS011;62150;43.582;1.456;2023-02-07T10:49:50;1.77;;;1.40;;
17496;SDS011;62150;43.582;1.456;2023-02-07T10:52:25;2.17;;;1.40;;
17496;SDS011;62150;43.582;1.456;2023-02-07T10:54:56;1.40;;;1.30;;
17496;SDS011;62150;43.582;1.456;2023-02-07T10:57:26;2.37;;;1.30;;
17496;SDS011;62150;43.582;1.456;2023-02-07T10:59:59;1.40;;;1.30;;
17496;SDS011;62150;43.582;1.456;2023-02-07T11:02:37;2.03;;;1.40;;
17496;SDS011;62150;43.582;1.456;2023-02-07T11:05:27;1.60;;;1.50;;
17496;SDS011;62150;43.582;1.456;2023-02-07T11:08:01;1.97;;;1.50;;
17496;SDS011;62150;43.582;1.456;2023-02-07T11:10:34;1.47;;;1.30;;
17496;SDS011;62150;43.582;1.456;2023-02-07T11:13:05;1.93;;;1.30;;
17496;SDS011;62150;43.582;1.456;2023-02-07T11:15:44;2.10;;;1.50;;
17496;SDS011;62150;43.582;1.456;2023-02-07T11:18:25;2.40;;;1.60;;
17496;SDS011;62150;43.582;1.456;2023-02-07T11:21:02;1.77;;;1.30;;
17496;SDS011;62150;43.582;1.456;2023-02-07T11:23:43;3.73;;;1.63;;
17496;SDS011;62150;43.582;1.456;2023-02-07T11:26:12;2.73;;;1.53;;
17496;SDS011;62150;43.582;1.456;2023-02-07T11:28:43;1.80;;;1.30;;
17496;SDS011;62150;43.582;1.456;2023-02-07T11:31:13;2.40;;;1.43;;
17496;SDS011;62150;43.582;1.456;2023-02-07T11:33:44;1.47;;;1.37;;
17496;SDS011;62150;43.582;1.456;2023-02-07T11:36:20;2.93;;;1.40;;
17496;SDS011;62150;43.582;1.456;2023-02-07T11:38:52;2.23;;;1.70;;
17496;SDS011;62150;43.582;1.456;2023-02-07T11:41:22;1.83;;;1.37;;
17496;SDS011;62150;43.582;1.456;2023-02-07T11:43:54;1.63;;;1.30;;
17496;SDS011;62150;43.582;1.456;2023-02-07T11:46:29;1.67;;;1.40;;
17496;SDS011;62150;43.582;1.456;2023-02-07T11:49:02;2.33;;;1.30;;
17496;SDS011;62150;43.582;1.456;2023-02-07T11:51:33;2.13;;;1.60;;
17496;SDS011;62150;43.582;1.456;2023-02-07T11:54:01;1.87;;;1.37;;
17496;SDS011;62150;43.582;1.456;2023-02-07T11:56:32;4.30;;;1.63;;
17496;SDS011;62150;43.582;1.456;2023-02-07T11:59:05;2.83;;;1.43;;
17496;SDS011;62150;43.582;1.456;2023-02-07T12:01:39;3.00;;;1.70;;
17496;SDS011;62150;43.582;1.456;2023-02-07T12:04:09;2.73;;;1.53;;
17496;SDS011;62150;43.582;1.456;2023-02-07T12:06:42;1.50;;;1.40;;
17496;SDS011;62150;43.582;1.456;2023-02-07T12:09:18;7.33;;;2.23;;
17496;SDS011;62150;43.582;1.456;2023-02-07T12:11:49;5.13;;;1.90;;
17496;SDS011;62150;43.582;1.456;2023-02-07T12:14:24;4.93;;;2.17;;
17496;SDS011;62150;43.582;1.456;2023-02-07T12:16:58;4.47;;;2.03;;
17496;SDS011;62150;43.582;1.456;2023-02-07T12:19:28;5.83;;;2.13;;
17496;SDS011;62150;43.582;1.456;2023-02-07T12:22:00;6.90;;;2.40;;
17496;SDS011;62150;43.582;1.456;2023-02-07T12:24:33;4.70;;;2.10;;
17496;SDS011;62150;43.582;1.456;2023-02-07T12:27:05;4.17;;;1.90;;
17496;SDS011;62150;43.582;1.456;2023-02-07T12:32:30;4.93;;;2.10;;
17496;SDS011;62150;43.582;1.456;2023-02-07T12:35:05;5.30;;;2.10;;
17496;SDS011;62150;43.582;1.456;2023-02-07T12:37:42;6.00;;;2.07;;
17496;SDS011;62150;43.582;1.456;2023-02-07T12:40:18;4.00;;;1.90;;
17496;SDS011;62150;43.582;1.456;2023-02-07T12:42:53;5.07;;;1.97;;
17496;SDS011;62150;43.582;1.456;2023-02-07T12:45:29;4.57;;;2.13;;
17496;SDS011;62150;43.582;1.456;2023-02-07T12:48:12;5.30;;;1.97;;
17496;SDS011;62150;43.582;1.456;2023-02-07T12:51:00;3.97;;;2.00;;
17496;SDS011;62150;43.582;1.456;2023-02-07T12:53:44;5.27;;;1.80;;
17496;SDS011;62150;43.582;1.456;2023-02-07T12:56:22;5.30;;;2.20;;
17496;SDS011;62150;43.582;1.456;2023-02-07T12:59:01;4.30;;;2.00;;
17496;SDS011;62150;43.582;1.456;2023-02-07T13:01:41;5.83;;;1.90;;
17496;SDS011;62150;43.582;1.456;2023-02-07T13:04:18;4.40;;;1.83;;
17496;SDS011;62150;43.582;1.456;2023-02-07T13:07:04;5.07;;;2.07;;
17496;SDS011;62150;43.582;1.456;2023-02-07T13:09:42;4.23;;;1.73;;
17496;SDS011;62150;43.582;1.456;2023-02-07T13:12:20;4.17;;;1.80;;
17496;SDS011;62150;43.582;1.456;2023-02-07T13:14:57;4.83;;;1.70;;
17496;SDS011;62150;43.582;1.456;2023-02-07T13:17:42;3.10;;;1.73;;
17496;SDS011;62150;43.582;1.456;2023-02-07T13:20:26;4.53;;;1.80;;
17496;SDS011;62150;43.582;1.456;2023-02-07T13:23:03;4.33;;;1.70;;
17496;SDS011;62150;43.582;1.456;2023-02-07T13:25:39;2.83;;;1.60;;
17496;SDS011;62150;43.582;1.456;2023-02-07T13:28:11;2.00;;;1.60;;
17496;SDS011;62150;43.582;1.456;2023-02-07T13:30:43;2.20;;;1.40;;
17496;SDS011;62150;43.582;1.456;2023-02-07T13:33:21;1.83;;;1.53;;
17496;SDS011;62150;43.582;1.456;2023-02-07T13:35:55;2.50;;;1.50;;
17496;SDS011;62150;43.582;1.456;2023-02-07T13:38:33;2.73;;;1.60;;
17496;SDS011;62150;43.582;1.456;2023-02-07T13:41:07;3.63;;;1.50;;
17496;SDS011;62150;43.582;1.456;2023-02-07T13:43:44;3.40;;;1.50;;
17496;SDS011;62150;43.582;1.456;2023-02-07T13:46:25;2.23;;;1.40;;
17496;SDS011;62150;43.582;1.456;2023-02-07T13:49:21;1.80;;;1.57;;
17496;SDS011;62150;43.582;1.456;2023-02-07T13:52:00;2.50;;;1.70;;
17496;SDS011;62150;43.582;1.456;2023-02-07T13:54:33;3.63;;;1.77;;
17496;SDS011;62150;43.582;1.456;2023-02-07T13:57:17;2.57;;;1.60;;
17496;SDS011;62150;43.582;1.456;2023-02-07T14:00:05;2.77;;;1.67;;
17496;SDS011;62150;43.582;1.456;2023-02-07T14:02:42;3.43;;;1.60;;
17496;SDS011;62150;43.582;1.456;2023-02-07T14:05:19;3.33;;;1.60;;
17496;SDS011;62150;43.582;1.456;2023-02-07T14:07:51;1.97;;;1.50;;
17496;SDS011;62150;43.582;1.456;2023-02-07T14:10:43;2.43;;;1.50;;
17496;SDS011;62150;43.582;1.456;2023-02-07T14:13:19;3.43;;;1.77;;
17496;SDS011;62150;43.582;1.456;2023-02-07T14:15:53;4.43;;;1.80;;
17496;SDS011;62150;43.582;1.456;2023-02-07T14:24:17;2.33;;;1.60;;
17496;SDS011;62150;43.582;1.456;2023-02-07T14:26:58;4.37;;;1.87;;
17496;SDS011;62150;43.582;1.456;2023-02-07T14:35:45;12.33;;;4.17;;
17496;SDS011;62150;43.582;1.456;2023-02-07T14:38:44;11.63;;;3.93;;
17496;SDS011;62150;43.582;1.456;2023-02-07T14:41:28;14.37;;;5.47;;
17496;SDS011;62150;43.582;1.456;2023-02-07T14:43:59;10.60;;;3.87;;
17496;SDS011;62150;43.582;1.456;2023-02-07T14:46:29;9.40;;;3.60;;
17496;SDS011;62150;43.582;1.456;2023-02-07T14:49:01;8.33;;;3.10;;
17496;SDS011;62150;43.582;1.456;2023-02-07T14:51:31;7.03;;;2.70;;
17496;SDS011;62150;43.582;1.456;2023-02-07T14:54:12;7.43;;;2.93;;
17496;SDS011;62150;43.582;1.456;2023-02-07T14:56:46;6.20;;;2.40;;
17496;SDS011;62150;43.582;1.456;2023-02-07T14:59:22;4.40;;;2.20;;
17496;SDS011;62150;43.582;1.456;2023-02-07T15:01:53;5.87;;;2.40;;
17496;SDS011;62150;43.582;1.456;2023-02-07T15:04:21;5.20;;;2.53;;
17496;SDS011;62150;43.582;1.456;2023-02-07T15:06:49;5.77;;;2.67;;
17496;SDS011;62150;43.582;1.456;2023-02-07T15:09:19;4.47;;;2.20;;
17496;SDS011;62150;43.582;1.456;2023-02-07T15:11:50;5.40;;;2.03;;
17496;SDS011;62150;43.582;1.456;2023-02-07T15:14:25;4.83;;;2.33;;
17496;SDS011;62150;43.582;1.456;2023-02-07T15:16:57;4.63;;;2.40;;
17496;SDS011;62150;43.582;1.456;2023-02-07T15:19:27;6.37;;;2.80;;
17496;SDS011;62150;43.582;1.456;2023-02-07T15:21:59;6.13;;;2.77;;
17496;SDS011;62150;43.582;1.456;2023-02-07T15:24:30;6.43;;;2.57;;
17496;SDS011;62150;43.582;1.456;2023-02-07T15:27:03;5.93;;;2.60;;
17496;SDS011;62150;43.582;1.456;2023-02-07T15:29:32;5.17;;;2.60;;
17496;SDS011;62150;43.582;1.456;2023-02-07T15:32:10;5.13;;;2.60;;
17496;SDS011;62150;43.582;1.456;2023-02-07T15:34:45;6.17;;;2.60;;
17496;SDS011;62150;43.582;1.456;2023-02-07T15:37:14;5.63;;;2.53;;
17496;SDS011;62150;43.582;1.456;2023-02-07T15:39:46;5.87;;;2.63;;
17496;SDS011;62150;43.582;1.456;2023-02-07T15:42:15;4.77;;;2.40;;
17496;SDS011;62150;43.582;1.456;2023-02-07T15:44:47;4.50;;;2.40;;
17496;SDS011;62150;43.582;1.456;2023-02-07T15:47:32;4.27;;;2.10;;
17496;SDS011;62150;43.582;1.456;2023-02-07T15:50:04;4.77;;;2.20;;
17496;SDS011;62150;43.582;1.456;2023-02-07T15:52:47;5.27;;;2.20;;
17496;SDS011;62150;43.582;1.456;2023-02-07T15:55:21;4.80;;;2.27;;
17496;SDS011;62150;43.582;1.456;2023-02-07T15:57:55;4.53;;;2.30;;
17496;SDS011;62150;43.582;1.456;2023-02-07T16:00:23;5.17;;;2.20;;
17496;SDS011;62150;43.582;1.456;2023-02-07T16:02:54;4.27;;;2.33;;
17496;SDS011;62150;43.582;1.456;2023-02-07T16:05:25;4.30;;;2.10;;
17496;SDS011;62150;43.582;1.456;2023-02-07T16:07:58;5.10;;;2.50;;
17496;SDS011;62150;43.582;1.456;2023-02-07T16:10:35;6.73;;;2.03;;
17496;SDS011;62150;43.582;1.456;2023-02-07T16:13:09;5.67;;;2.70;;
17496;SDS011;62150;43.582;1.456;2023-02-07T16:15:50;8.53;;;2.60;;
17496;SDS011;62150;43.582;1.456;2023-02-07T16:18:33;7.47;;;2.77;;
17496;SDS011;62150;43.582;1.456;2023-02-07T16:21:03;7.70;;;3.07;;
17496;SDS011;62150;43.582;1.456;2023-02-07T16:23:33;7.80;;;3.13;;
17496;SDS011;62150;43.582;1.456;2023-02-07T16:26:02;9.93;;;3.20;;
17496;SDS011;62150;43.582;1.456;2023-02-07T16:28:30;8.63;;;2.80;;
17496;SDS011;62150;43.582;1.456;2023-02-07T16:30:58;7.97;;;3.40;;
17496;SDS011;62150;43.582;1.456;2023-02-07T16:33:26;11.13;;;3.17;;
17496;SDS011;62150;43.582;1.456;2023-02-07T16:35:53;11.17;;;3.10;;
17496;SDS011;62150;43.582;1.456;2023-02-07T16:38:21;9.37;;;2.97;;
17496;SDS011;62150;43.582;1.456;2023-02-07T16:40:48;9.23;;;3.13;;
17496;SDS011;62150;43.582;1.456;2023-02-07T16:43:23;8.00;;;2.70;;
17496;SDS011;62150;43.582;1.456;2023-02-07T16:46:00;11.43;;;3.83;;
17496;SDS011;62150;43.582;1.456;2023-02-07T16:48:28;11.43;;;3.37;;
17496;SDS011;62150;43.582;1.456;2023-02-07T16:50:55;8.57;;;3.10;;
17496;SDS011;62150;43.582;1.456;2023-02-07T16:53:25;7.73;;;2.77;;
17496;SDS011;62150;43.582;1.456;2023-02-07T16:55:53;8.17;;;3.03;;
17496;SDS011;62150;43.582;1.456;2023-02-07T16:58:24;11.10;;;3.40;;
17496;SDS011;62150;43.582;1.456;2023-02-07T17:00:54;8.93;;;3.50;;
17496;SDS011;62150;43.582;1.456;2023-02-07T17:03:21;6.73;;;2.83;;
17496;SDS011;62150;43.582;1.456;2023-02-07T17:05:49;8.87;;;3.07;;
17496;SDS011;62150;43.582;1.456;2023-02-07T17:08:18;11.13;;;3.43;;
17496;SDS011;62150;43.582;1.456;2023-02-07T17:10:51;9.13;;;2.93;;
17496;SDS011;62150;43.582;1.456;2023-02-07T17:13:22;12.00;;;3.33;;
17496;SDS011;62150;43.582;1.456;2023-02-07T17:15:51;11.97;;;3.40;;
17496;SDS011;62150;43.582;1.456;2023-02-07T17:18:18;14.13;;;3.40;;
17496;SDS011;62150;43.582;1.456;2023-02-07T17:20:46;10.83;;;3.23;;
17496;SDS011;62150;43.582;1.456;2023-02-07T17:23:14;11.60;;;3.27;;
17496;SDS011;62150;43.582;1.456;2023-02-07T17:25:42;12.93;;;3.40;;
17496;SDS011;62150;43.582;1.456;2023-02-07T17:28:10;11.40;;;3.40;;
17496;SDS011;62150;43.582;1.456;2023-02-07T17:30:40;11.00;;;3.47;;
17496;SDS011;62150;43.582;1.456;2023-02-07T17:33:10;11.53;;;3.53;;
17496;SDS011;62150;43.582;1.456;2023-02-07T17:35:41;16.90;;;6.77;;
17496;SDS011;62150;43.582;1.456;2023-02-07T17:38:09;11.30;;;4.53;;
17496;SDS011;62150;43.582;1.456;2023-02-07T17:40:38;10.87;;;3.47;;
17496;SDS011;62150;43.582;1.456;2023-02-07T17:43:06;11.47;;;3.60;;
17496;SDS011;62150;43.582;1.456;2023-02-07T17:45:35;10.33;;;3.40;;
17496;SDS011;62150;43.582;1.456;2023-02-07T17:48:03;12.47;;;3.50;;
17496;SDS011;62150;43.582;1.456;2023-02-07T17:50:33;11.87;;;3.77;;
17496;SDS011;62150;43.582;1.456;2023-02-07T17:53:04;8.97;;;3.20;;
17496;SDS011;62150;43.582;1.456;2023-02-07T17:55:35;12.87;;;3.60;;
17496;SDS011;62150;43.582;1.456;2023-02-07T17:58:03;9.83;;;3.10;;
17496;SDS011;62150;43.582;1.456;2023-02-07T18:00:32;10.77;;;3.90;;
17496;SDS011;62150;43.582;1.456;2023-02-07T18:03:01;12.23;;;4.00;;
17496;SDS011;62150;43.582;1.456;2023-02-07T18:05:30;11.53;;;3.10;;
17496;SDS011;62150;43.582;1.456;2023-02-07T18:07:59;10.90;;;2.90;;
17496;SDS011;62150;43.582;1.456;2023-02-07T18:10:28;10.77;;;3.43;;
17496;SDS011;62150;43.582;1.456;2023-02-07T18:12:57;10.50;;;3.33;;
17496;SDS011;62150;43.582;1.456;2023-02-07T18:15:25;9.30;;;3.20;;
17496;SDS011;62150;43.582;1.456;2023-02-07T18:17:52;14.57;;;3.50;;
17496;SDS011;62150;43.582;1.456;2023-02-07T18:20:23;9.67;;;3.37;;
17496;SDS011;62150;43.582;1.456;2023-02-07T18:22:59;9.77;;;2.90;;
17496;SDS011;62150;43.582;1.456;2023-02-07T18:25:27;8.87;;;3.37;;
17496;SDS011;62150;43.582;1.456;2023-02-07T18:27:56;9.60;;;3.20;;
17496;SDS011;62150;43.582;1.456;2023-02-07T18:30:26;9.43;;;2.90;;
17496;SDS011;62150;43.582;1.456;2023-02-07T18:32:54;7.83;;;3.13;;
17496;SDS011;62150;43.582;1.456;2023-02-07T18:35:21;11.43;;;3.57;;
17496;SDS011;62150;43.582;1.456;2023-02-07T18:37:49;10.97;;;3.53;;
17496;SDS011;62150;43.582;1.456;2023-02-07T18:40:18;7.67;;;3.00;;
17496;SDS011;62150;43.582;1.456;2023-02-07T18:42:45;8.90;;;3.23;;
17496;SDS011;62150;43.582;1.456;2023-02-07T18:45:13;9.63;;;3.20;;
17496;SDS011;62150;43.582;1.456;2023-02-07T18:47:41;10.70;;;3.50;;
17496;SDS011;62150;43.582;1.456;2023-02-07T18:50:08;9.10;;;3.43;;
17496;SDS011;62150;43.582;1.456;2023-02-07T18:52:37;10.77;;;3.77;;
17496;SDS011;62150;43.582;1.456;2023-02-07T18:55:05;9.27;;;3.40;;
17496;SDS011;62150;43.582;1.456;2023-02-07T18:57:35;9.30;;;3.20;;
17496;SDS011;62150;43.582;1.456;2023-02-07T19:00:02;9.93;;;3.40;;
17496;SDS011;62150;43.582;1.456;2023-02-07T19:02:31;11.20;;;3.50;;
17496;SDS011;62150;43.582;1.456;2023-02-07T19:04:59;12.37;;;3.80;;
17496;SDS011;62150;43.582;1.456;2023-02-07T19:07:26;7.27;;;3.03;;
17496;SDS011;62150;43.582;1.456;2023-02-07T19:09:54;12.90;;;3.70;;
17496;SDS011;62150;43.582;1.456;2023-02-07T19:12:21;9.97;;;3.33;;
17496;SDS011;62150;43.582;1.456;2023-02-07T19:14:50;12.43;;;3.43;;
17496;SDS011;62150;43.582;1.456;2023-02-07T19:17:18;9.37;;;3.30;;
17496;SDS011;62150;43.582;1.456;2023-02-07T19:19:45;10.23;;;3.37;;
17496;SDS011;62150;43.582;1.456;2023-02-07T19:22:13;10.33;;;3.60;;
17496;SDS011;62150;43.582;1.456;2023-02-07T19:24:40;8.77;;;3.27;;
17496;SDS011;62150;43.582;1.456;2023-02-07T19:27:08;11.73;;;3.37;;
17496;SDS011;62150;43.582;1.456;2023-02-07T19:29:35;7.97;;;3.10;;
17496;SDS011;62150;43.582;1.456;2023-02-07T19:32:08;9.73;;;3.20;;
17496;SDS011;62150;43.582;1.456;2023-02-07T19:34:35;12.33;;;3.40;;
17496;SDS011;62150;43.582;1.456;2023-02-07T19:37:03;9.60;;;3.30;;
17496;SDS011;62150;43.582;1.456;2023-02-07T19:39:30;11.60;;;3.60;;
17496;SDS011;62150;43.582;1.456;2023-02-07T19:41:58;8.30;;;3.33;;
17496;SDS011;62150;43.582;1.456;2023-02-07T19:44:28;10.03;;;3.40;;
17496;SDS011;62150;43.582;1.456;2023-02-07T19:46:56;12.60;;;3.70;;
17496;SDS011;62150;43.582;1.456;2023-02-07T19:49:25;10.90;;;3.30;;
17496;SDS011;62150;43.582;1.456;2023-02-07T19:51:52;8.33;;;3.10;;
17496;SDS011;62150;43.582;1.456;2023-02-07T19:54:21;10.17;;;3.30;;
17496;SDS011;62150;43.582;1.456;2023-02-07T19:56:48;8.23;;;2.90;;
17496;SDS011;62150;43.582;1.456;2023-02-07T19:59:16;10.97;;;3.70;;
17496;SDS011;62150;43.582;1.456;2023-02-07T20:01:44;10.10;;;3.57;;
17496;SDS011;62150;43.582;1.456;2023-02-07T20:04:11;8.47;;;3.40;;
17496;SDS011;62150;43.582;1.456;2023-02-07T20:06:40;11.87;;;3.27;;
17496;SDS011;62150;43.582;1.456;2023-02-07T20:09:08;8.00;;;3.43;;
17496;SDS011;62150;43.582;1.456;2023-02-07T20:11:35;10.57;;;3.80;;
17496;SDS011;62150;43.582;1.456;2023-02-07T20:14:03;12.90;;;4.43;;
17496;SDS011;62150;43.582;1.456;2023-02-07T20:16:32;12.27;;;4.47;;
17496;SDS011;62150;43.582;1.456;2023-02-07T20:19:03;13.60;;;4.67;;
17496;SDS011;62150;43.582;1.456;2023-02-07T20:21:32;11.00;;;4.10;;
17496;SDS011;62150;43.582;1.456;2023-02-07T20:24:02;10.70;;;3.77;;
17496;SDS011;62150;43.582;1.456;2023-02-07T20:26:31;10.63;;;3.53;;
17496;SDS011;62150;43.582;1.456;2023-02-07T20:29:02;7.53;;;3.37;;
17496;SDS011;62150;43.582;1.456;2023-02-07T20:31:31;9.67;;;3.40;;
17496;SDS011;62150;43.582;1.456;2023-02-07T20:33:59;8.87;;;3.23;;
17496;SDS011;62150;43.582;1.456;2023-02-07T20:36:27;10.17;;;3.27;;
17496;SDS011;62150;43.582;1.456;2023-02-07T20:38:58;10.07;;;3.50;;
17496;SDS011;62150;43.582;1.456;2023-02-07T20:41:27;9.07;;;3.30;;
17496;SDS011;62150;43.582;1.456;2023-02-07T20:43:56;11.03;;;3.50;;
17496;SDS011;62150;43.582;1.456;2023-02-07T20:46:26;8.87;;;3.30;;
17496;SDS011;62150;43.582;1.456;2023-02-07T20:48:55;8.60;;;3.13;;
17496;SDS011;62150;43.582;1.456;2023-02-07T20:51:24;11.07;;;3.53;;
17496;SDS011;62150;43.582;1.456;2023-02-07T20:53:54;10.90;;;3.60;;
17496;SDS011;62150;43.582;1.456;2023-02-07T20:56:23;8.90;;;3.23;;
17496;SDS011;62150;43.582;1.456;2023-02-07T20:58:53;11.33;;;3.40;;
17496;SDS011;62150;43.582;1.456;2023-02-07T21:01:22;10.37;;;3.30;;
17496;SDS011;62150;43.582;1.456;2023-02-07T21:03:51;6.77;;;2.70;;
17496;SDS011;62150;43.582;1.456;2023-02-07T21:06:21;9.50;;;3.20;;
17496;SDS011;62150;43.582;1.456;2023-02-07T21:08:49;8.10;;;2.97;;
17496;SDS011;62150;43.582;1.456;2023-02-07T21:11:24;7.83;;;3.10;;
17496;SDS011;62150;43.582;1.456;2023-02-07T21:13:53;8.47;;;3.10;;
17496;SDS011;62150;43.582;1.456;2023-02-07T21:16:20;9.27;;;3.33;;
17496;SDS011;62150;43.582;1.456;2023-02-07T21:18:48;8.53;;;3.37;;
17496;SDS011;62150;43.582;1.456;2023-02-07T21:21:16;8.93;;;3.33;;
17496;SDS011;62150;43.582;1.456;2023-02-07T21:23:44;10.17;;;3.43;;
17496;SDS011;62150;43.582;1.456;2023-02-07T21:26:12;8.33;;;3.40;;
17496;SDS011;62150;43.582;1.456;2023-02-07T21:28:41;7.20;;;3.07;;
17496;SDS011;62150;43.582;1.456;2023-02-07T21:31:11;8.57;;;3.13;;
17496;SDS011;62150;43.582;1.456;2023-02-07T21:33:42;11.63;;;3.10;;
17496;SDS011;62150;43.582;1.456;2023-02-07T21:36:11;12.00;;;3.07;;
17496;SDS011;62150;43.582;1.456;2023-02-07T21:38:42;8.90;;;3.10;;
17496;SDS011;62150;43.582;1.456;2023-02-07T21:41:11;9.50;;;3.17;;
17496;SDS011;62150;43.582;1.456;2023-02-07T21:43:41;10.97;;;3.93;;
17496;SDS011;62150;43.582;1.456;2023-02-07T21:46:09;7.90;;;3.23;;
17496;SDS011;62150;43.582;1.456;2023-02-07T21:48:42;7.43;;;3.03;;
17496;SDS011;62150;43.582;1.456;2023-02-07T21:51:11;7.73;;;3.20;;
17496;SDS011;62150;43.582;1.456;2023-02-07T21:53:41;11.43;;;3.30;;
17496;SDS011;62150;43.582;1.456;2023-02-07T21:56:11;10.27;;;2.97;;
17496;SDS011;62150;43.582;1.456;2023-02-07T21:58:39;9.10;;;3.13;;
17496;SDS011;62150;43.582;1.456;2023-02-07T22:01:08;10.93;;;3.40;;
17496;SDS011;62150;43.582;1.456;2023-02-07T22:03:40;7.93;;;2.63;;
17496;SDS011;62150;43.582;1.456;2023-02-07T22:06:09;7.47;;;2.90;;
17496;SDS011;62150;43.582;1.456;2023-02-07T22:08:38;10.27;;;3.50;;
